Terminal Aerodrome Forecast
Issued by NWS Upton, NY

Home | Current Version | Previous Version | Text Only | Print | Product List | Glossary On
Versions: 1 2 3 4 5 6 7 8 9 10 11 12 13 14 15 16 17 18 19 20 21 22 23 24 25 26 27 28 29 30 31 32
000
FTUS41 KOKX 291132
TAFBDR
TAF
KBDR 291132Z 2912/3012 VRB04KT P6SM SCT150 BKN200
     FM291500 20012G18KT P6SM FEW050 SCT200
     FM292000 20017G23KT P6SM FEW050 SCT250
     FM300000 20019G25KT P6SM SCT050 SCT080 WS020/24040KT
     FM300300 22014G21KT P6SM SCT050 SCT080 WS020/24045KT
     FM301000 23012KT P6SM FEW040 SCT070=

USA.gov is the U.S. government's official web portal to all federal, state and local government web resources and services.